Time;durP1;ratioP1;P1;durP2;ratioP2;P2;SDS_P1;SDS_P2;PMS_P1;PMS_P2;Temp;Humidity;BMP_temperature;BMP_pressure;BME280_temperature;BME280_humidity;BME280_pressure;Samples;Min_cycle;Max_cycle;Signal;HPM_P1;HPM_P2
2023/09/20 00:01:14;;;;;;;4.78;2.20;;;;;;;;;;5002551;28;20034;-59
2023/09/20 00:03:41;;;;;;;5.53;2.10;;;;;;;;;;5001273;28;20046;-62
2023/09/20 00:06:09;;;;;;;4.22;2.22;;;;;;;;;;5001442;28;20045;-60
2023/09/20 00:08:36;;;;;;;4.72;2.30;;;;;;;;;;5000457;28;20797;-60
2023/09/20 00:11:05;;;;;;;6.78;2.60;;;;;;;;;;5003329;28;20156;-61
2023/09/20 00:13:33;;;;;;;5.55;2.75;;;;;;;;;;5001729;28;20524;-60
2023/09/20 00:16:01;;;;;;;5.50;2.78;;;;;;;;;;5000457;28;20124;-60
2023/09/20 00:18:30;;;;;;;5.43;2.60;;;;;;;;;;5002238;28;20042;-62
2023/09/20 00:21:01;;;;;;;7.10;2.50;;;;;;;;;;5000933;28;20044;-62
2023/09/20 00:23:28;;;;;;;5.05;2.08;;;;;;;;;;5001565;28;20053;-59
2023/09/20 00:25:54;;;;;;;5.07;1.80;;;;;;;;;;5002373;28;20493;-61
2023/09/20 00:28:21;;;;;;;6.82;2.35;;;;;;;;;;5000454;28;20038;-60
2023/09/20 00:30:48;;;;;;;5.47;2.50;;;;;;;;;;5001327;28;20540;-64
2023/09/20 00:33:15;;;;;;;5.55;2.10;;;;;;;;;;5017696;28;20041;-60
2023/09/20 00:35:41;;;;;;;4.20;2.00;;;;;;;;;;5001118;28;20124;-60
2023/09/20 00:38:08;;;;;;;4.13;2.00;;;;;;;;;;5000372;28;20038;-61
2023/09/20 00:40:37;;;;;;;4.90;1.77;;;;;;;;;;5000252;28;20061;-62
2023/09/20 00:43:07;;;;;;;3.95;1.60;;;;;;;;;;5001411;28;20510;-59
2023/09/20 00:45:40;;;;;;;4.28;1.90;;;;;;;;;;5000554;28;20033;-63
2023/09/20 00:48:08;;;;;;;3.92;1.73;;;;;;;;;;4999060;28;20505;-62
2023/09/20 00:50:36;;;;;;;5.03;1.75;;;;;;;;;;5015218;28;20498;-60
2023/09/20 00:53:06;;;;;;;4.20;2.03;;;;;;;;;;5003114;28;20049;-61
2023/09/20 00:55:34;;;;;;;6.63;2.78;;;;;;;;;;5002821;28;20041;-61
2023/09/20 00:58:12;;;;;;;6.38;3.05;;;;;;;;;;5004838;28;20065;-64
2023/09/20 01:00:40;;;;;;;11.35;5.45;;;;;;;;;;5003958;28;20034;-59
2023/09/20 01:03:07;;;;;;;7.88;2.90;;;;;;;;;;5008245;28;20046;-62
2023/09/20 01:05:37;;;;;;;6.45;2.47;;;;;;;;;;5004932;28;20119;-64
2023/09/20 01:08:05;;;;;;;5.20;2.00;;;;;;;;;;5005369;28;20191;-63
2023/09/20 01:10:31;;;;;;;5.90;2.45;;;;;;;;;;5004938;28;20572;-62
2023/09/20 01:13:02;;;;;;;4.47;2.15;;;;;;;;;;5004972;28;20056;-59
2023/09/20 01:15:29;;;;;;;5.38;2.55;;;;;;;;;;5004960;28;20042;-59
2023/09/20 01:17:57;;;;;;;5.75;2.20;;;;;;;;;;5003292;28;20061;-60
2023/09/20 01:20:27;;;;;;;8.55;2.47;;;;;;;;;;5005311;28;20527;-62
2023/09/20 01:22:54;;;;;;;4.38;2.45;;;;;;;;;;5002669;28;20153;-60
2023/09/20 01:25:24;;;;;;;6.60;2.33;;;;;;;;;;5018817;28;20046;-58
2023/09/20 01:27:52;;;;;;;6.50;2.22;;;;;;;;;;4995740;28;20037;-56
2023/09/20 01:30:19;;;;;;;5.13;2.20;;;;;;;;;;5004641;28;20038;-60
2023/09/20 01:32:45;;;;;;;5.85;2.28;;;;;;;;;;5005189;28;20122;-61
2023/09/20 01:35:16;;;;;;;7.65;2.88;;;;;;;;;;5005015;28;20546;-63
2023/09/20 01:37:46;;;;;;;5.95;2.60;;;;;;;;;;5002116;28;20489;-60
2023/09/20 01:40:16;;;;;;;7.88;2.40;;;;;;;;;;5006372;28;20076;-62
2023/09/20 01:42:46;;;;;;;7.60;2.80;;;;;;;;;;5003776;28;20045;-61
2023/09/20 01:45:34;;;;;;;8.93;2.67;;;;;;;;;;5020033;28;20041;-63
2023/09/20 01:48:04;;;;;;;6.18;2.55;;;;;;;;;;5011814;28;20033;-62
2023/09/20 01:50:31;;;;;;;7.07;2.90;;;;;;;;;;5020379;28;20067;-62
2023/09/20 01:52:59;;;;;;;6.05;3.00;;;;;;;;;;5021303;28;20413;-62
2023/09/20 01:55:31;;;;;;;8.13;3.42;;;;;;;;;;5019925;28;20041;-65
2023/09/20 01:58:06;;;;;;;11.93;4.30;;;;;;;;;;5019262;28;20560;-61
2023/09/20 02:00:36;;;;;;;9.75;4.25;;;;;;;;;;5020427;28;20060;-62
2023/09/20 02:03:08;;;;;;;5.75;3.30;;;;;;;;;;5020381;28;20418;-62
2023/09/20 02:05:36;;;;;;;7.72;3.50;;;;;;;;;;5019784;28;20449;-60
2023/09/20 02:08:03;;;;;;;6.88;3.58;;;;;;;;;;5018101;28;20041;-59
2023/09/20 02:10:31;;;;;;;6.68;3.60;;;;;;;;;;5021657;28;20048;-61
2023/09/20 02:12:59;;;;;;;7.03;3.80;;;;;;;;;;5022104;28;20828;-65
2023/09/20 02:15:29;;;;;;;6.82;3.33;;;;;;;;;;5021222;28;20128;-60
2023/09/20 02:17:56;;;;;;;6.97;3.22;;;;;;;;;;5020779;28;20041;-61
2023/09/20 02:20:24;;;;;;;7.47;3.90;;;;;;;;;;5007764;28;20205;-61
2023/09/20 02:22:54;;;;;;;7.57;3.50;;;;;;;;;;5009625;28;20041;-59
2023/09/20 02:25:41;;;;;;;7.07;3.10;;;;;;;;;;5003565;28;20049;-62
2023/09/20 02:28:08;;;;;;;5.68;3.05;;;;;;;;;;5015683;28;20122;-58
2023/09/20 02:30:37;;;;;;;7.03;3.70;;;;;;;;;;5019306;28;20219;-53
2023/09/20 02:33:07;;;;;;;6.82;3.35;;;;;;;;;;5020674;28;20160;-59
2023/09/20 02:35:36;;;;;;;7.72;3.63;;;;;;;;;;5019879;28;20037;-62
2023/09/20 02:38:05;;;;;;;6.85;3.17;;;;;;;;;;5018987;28;20610;-63
2023/09/20 02:40:35;;;;;;;6.75;3.05;;;;;;;;;;5019898;28;20037;-58
2023/09/20 02:43:03;;;;;;;8.90;3.33;;;;;;;;;;5019843;28;20136;-59
2023/09/20 02:45:30;;;;;;;6.82;2.70;;;;;;;;;;5019517;28;20096;-61
2023/09/20 02:48:04;;;;;;;9.32;3.47;;;;;;;;;;4991405;28;20139;-61
2023/09/20 02:50:30;;;;;;;7.90;2.72;;;;;;;;;;5019493;28;20037;-62
2023/09/20 02:52:58;;;;;;;5.93;2.63;;;;;;;;;;5021232;28;20045;-60
2023/09/20 02:55:24;;;;;;;7.57;2.80;;;;;;;;;;5004515;28;20703;-62
2023/09/20 02:57:54;;;;;;;6.20;2.90;;;;;;;;;;5003924;28;20042;-61
2023/09/20 03:00:27;;;;;;;6.47;2.78;;;;;;;;;;5006673;28;20041;-63
2023/09/20 03:02:55;;;;;;;7.72;2.42;;;;;;;;;;4995449;28;20041;-64
2023/09/20 03:05:26;;;;;;;6.18;2.95;;;;;;;;;;5006058;28;20449;-62
2023/09/20 03:07:53;;;;;;;8.07;2.85;;;;;;;;;;5002262;28;20388;-61
2023/09/20 03:10:21;;;;;;;5.75;2.65;;;;;;;;;;5004099;28;20060;-60
2023/09/20 03:12:48;;;;;;;5.60;2.58;;;;;;;;;;5018789;28;20704;-63
2023/09/20 03:15:21;;;;;;;5.93;2.50;;;;;;;;;;5002177;28;20034;-61
2023/09/20 03:17:48;;;;;;;9.85;3.03;;;;;;;;;;4997641;28;20061;-62
2023/09/20 03:20:22;;;;;;;7.28;2.90;;;;;;;;;;5000546;28;20041;-58
2023/09/20 03:22:53;;;;;;;5.55;2.17;;;;;;;;;;5000045;28;20061;-57
2023/09/20 03:25:21;;;;;;;6.32;2.75;;;;;;;;;;4999787;28;20124;-59
2023/09/20 03:27:48;;;;;;;4.95;2.47;;;;;;;;;;5000047;28;20061;-61
2023/09/20 03:30:20;;;;;;;8.20;2.65;;;;;;;;;;5001476;28;20049;-63
2023/09/20 03:32:50;;;;;;;6.88;2.72;;;;;;;;;;4998825;28;20667;-64
2023/09/20 03:35:19;;;;;;;7.63;2.83;;;;;;;;;;5001215;28;20052;-62
2023/09/20 03:37:46;;;;;;;10.73;2.75;;;;;;;;;;4986045;28;20038;-63
2023/09/20 03:40:17;;;;;;;6.35;2.78;;;;;;;;;;4991294;28;20476;-61
2023/09/20 03:42:46;;;;;;;7.45;2.85;;;;;;;;;;5000131;28;20049;-61
2023/09/20 03:45:16;;;;;;;6.07;2.97;;;;;;;;;;4997769;28;20037;-61
2023/09/20 03:47:45;;;;;;;6.15;3.08;;;;;;;;;;4998547;28;20551;-61
2023/09/20 03:50:12;;;;;;;9.65;2.83;;;;;;;;;;4979265;28;20069;-61
2023/09/20 03:52:39;;;;;;;5.20;2.60;;;;;;;;;;4996689;28;20198;-61
2023/09/20 03:55:06;;;;;;;5.85;2.75;;;;;;;;;;4979775;28;20557;-63
2023/09/20 03:57:33;;;;;;;9.15;3.30;;;;;;;;;;4991694;28;20229;-63
2023/09/20 04:00:06;;;;;;;6.10;2.25;;;;;;;;;;4998731;28;20034;-62
2023/09/20 04:02:33;;;;;;;;;;;;;;;;;;4981434;28;20061;-62
2023/09/20 04:05:05;;;;;;;4.63;2.13;;;;;;;;;;4974878;28;19917;-61
2023/09/20 04:07:47;;;;;;;5.90;2.25;;;;;;;;;;4998065;28;20042;-61
2023/09/20 04:10:16;;;;;;;4.43;2.00;;;;;;;;;;4997313;28;20042;-63
2023/09/20 04:12:43;;;;;;;5.35;2.38;;;;;;;;;;4993810;28;20841;-63
2023/09/20 04:15:10;;;;;;;4.75;2.10;;;;;;;;;;5001856;28;20602;-63
2023/09/20 04:17:38;;;;;;;6.25;1.80;;;;;;;;;;4999046;28;20038;-62
2023/09/20 04:20:05;;;;;;;8.25;2.10;;;;;;;;;;5000173;28;20045;-63
2023/09/20 04:22:33;;;;;;;9.55;2.10;;;;;;;;;;5002323;28;20046;-63
2023/09/20 04:25:00;;;;;;;9.20;2.10;;;;;;;;;;5020320;28;20116;-61
2023/09/20 04:27:30;;;;;;;7.32;1.80;;;;;;;;;;5020643;28;20589;-64
2023/09/20 04:29:56;;;;;;;7.68;1.80;;;;;;;;;;4998939;28;20096;-63
2023/09/20 04:32:23;;;;;;;5.00;1.75;;;;;;;;;;5026664;28;20049;-64
2023/09/20 04:34:53;;;;;;;8.55;1.90;;;;;;;;;;5025777;28;20382;-63
2023/09/20 04:37:23;;;;;;;5.53;1.75;;;;;;;;;;4998685;28;20757;-63
2023/09/20 04:39:49;;;;;;;5.00;1.60;;;;;;;;;;5008284;28;20565;-62
2023/09/20 04:42:16;;;;;;;7.85;1.73;;;;;;;;;;5007175;28;20042;-63
2023/09/20 04:44:43;;;;;;;7.70;1.40;;;;;;;;;;5021247;28;20044;-63
2023/09/20 04:47:31;;;;;;;5.90;1.70;;;;;;;;;;5026748;28;20045;-64
2023/09/20 04:49:58;;;;;;;4.10;1.40;;;;;;;;;;5016494;28;20045;-64
2023/09/20 04:52:24;;;;;;;7.85;1.60;;;;;;;;;;5008070;28;20104;-63
2023/09/20 04:54:52;;;;;;;4.00;1.50;;;;;;;;;;5015170;28;20464;-61
2023/09/20 04:57:19;;;;;;;5.45;1.25;;;;;;;;;;5025950;28;20045;-63
2023/09/20 04:59:46;;;;;;;5.90;1.60;;;;;;;;;;5025956;28;20156;-61
2023/09/20 05:02:14;;;;;;;3.53;1.27;;;;;;;;;;5028002;28;20087;-63
2023/09/20 05:04:42;;;;;;;6.45;1.45;;;;;;;;;;5010744;28;20041;-63
2023/09/20 05:07:09;;;;;;;5.75;1.30;;;;;;;;;;5025794;28;20049;-63
2023/09/20 05:09:37;;;;;;;2.58;0.95;;;;;;;;;;5021365;28;20055;-63
2023/09/20 05:12:04;;;;;;;3.45;1.20;;;;;;;;;;5016292;28;20049;-64
2023/09/20 05:14:31;;;;;;;6.13;1.30;;;;;;;;;;5023586;28;20042;-63
2023/09/20 05:16:58;;;;;;;4.15;1.30;;;;;;;;;;5026652;28;20490;-63
2023/09/20 05:19:25;;;;;;;5.28;1.27;;;;;;;;;;4998316;28;20236;-63
2023/09/20 05:21:52;;;;;;;6.90;1.20;;;;;;;;;;4993394;28;20046;-62
2023/09/20 05:24:19;;;;;;;4.28;1.10;;;;;;;;;;4976958;28;20050;-63
2023/09/20 05:26:46;;;;;;;3.80;1.30;;;;;;;;;;4991242;28;20097;-62
2023/09/20 05:29:12;;;;;;;6.68;1.10;;;;;;;;;;4991743;28;20133;-63
2023/09/20 05:31:39;;;;;;;3.53;1.15;;;;;;;;;;4993457;28;20046;-63
2023/09/20 05:34:07;;;;;;;4.13;1.02;;;;;;;;;;4993250;28;20045;-64
2023/09/20 05:36:34;;;;;;;3.22;1.13;;;;;;;;;;4995069;28;20055;-62
2023/09/20 05:39:00;;;;;;;3.58;1.25;;;;;;;;;;5008953;28;20148;-63
2023/09/20 05:41:47;;;;;;;5.90;1.10;;;;;;;;;;5023570;28;20033;-64
2023/09/20 05:44:13;;;;;;;3.00;1.10;;;;;;;;;;5026232;28;20082;-62
2023/09/20 05:46:40;;;;;;;4.18;1.05;;;;;;;;;;5010428;28;20075;-62
2023/09/20 05:49:07;;;;;;;4.22;1.27;;;;;;;;;;5015410;28;20647;-63
2023/09/20 05:51:33;;;;;;;3.42;1.05;;;;;;;;;;4999690;28;20774;-63
2023/09/20 05:54:00;;;;;;;3.08;1.10;;;;;;;;;;5026543;28;20394;-62
2023/09/20 05:56:27;;;;;;;4.13;1.10;;;;;;;;;;5025712;28;20037;-63
2023/09/20 05:58:53;;;;;;;2.90;1.10;;;;;;;;;;5025875;28;20112;-62
2023/09/20 06:01:20;;;;;;;3.20;1.10;;;;;;;;;;5023583;28;20132;-61
2023/09/20 06:03:47;;;;;;;3.97;1.30;;;;;;;;;;5020101;28;20656;-62
2023/09/20 06:06:13;;;;;;;3.58;1.13;;;;;;;;;;5023713;28;20057;-59
2023/09/20 06:08:41;;;;;;;4.45;1.25;;;;;;;;;;5023895;28;20048;-62
2023/09/20 06:11:08;;;;;;;3.33;1.20;;;;;;;;;;5016116;28;20071;-61
2023/09/20 06:13:35;;;;;;;4.15;1.20;;;;;;;;;;5024934;28;20064;-63
2023/09/20 06:16:03;;;;;;;3.40;1.05;;;;;;;;;;5023408;28;20048;-62
2023/09/20 06:18:32;;;;;;;2.78;0.90;;;;;;;;;;5019556;28;20506;-63
2023/09/20 06:21:03;;;;;;;3.45;1.00;;;;;;;;;;5000633;28;21412;-62
2023/09/20 06:23:29;;;;;;;4.05;1.10;;;;;;;;;;5002945;28;20494;-63
2023/09/20 06:25:58;;;;;;;2.45;0.80;;;;;;;;;;5017650;28;20061;-63
2023/09/20 06:28:27;;;;;;;3.95;1.10;;;;;;;;;;5003264;28;20522;-62
2023/09/20 06:30:54;;;;;;;3.03;0.98;;;;;;;;;;5004392;28;20069;-61
2023/09/20 06:33:21;;;;;;;3.20;1.02;;;;;;;;;;5019871;28;20080;-61
2023/09/20 06:35:47;;;;;;;4.45;0.90;;;;;;;;;;5019772;28;20046;-64
2023/09/20 06:38:15;;;;;;;3.58;1.00;;;;;;;;;;5008780;28;20063;-62
2023/09/20 06:40:42;;;;;;;2.60;0.80;;;;;;;;;;5004563;28;20446;-61
2023/09/20 06:43:09;;;;;;;4.05;0.90;;;;;;;;;;5004995;28;20076;-62
2023/09/20 06:45:36;;;;;;;4.55;1.00;;;;;;;;;;5002523;28;20042;-60
2023/09/20 06:48:03;;;;;;;3.55;1.10;;;;;;;;;;5004764;28;20041;-65
2023/09/20 06:50:30;;;;;;;3.55;0.90;;;;;;;;;;5004384;28;20111;-62
2023/09/20 06:52:58;;;;;;;2.78;0.93;;;;;;;;;;5002250;28;20045;-60
2023/09/20 06:55:25;;;;;;;3.10;1.00;;;;;;;;;;5003218;28;20184;-61
2023/09/20 06:57:52;;;;;;;3.55;1.20;;;;;;;;;;4999810;28;20794;-63
2023/09/20 07:00:25;;;;;;;3.35;1.02;;;;;;;;;;5012038;28;20607;-63
2023/09/20 07:02:52;;;;;;;3.35;1.20;;;;;;;;;;5006098;28;20041;-63
2023/09/20 07:05:21;;;;;;;4.75;1.40;;;;;;;;;;5017348;28;20072;-61
2023/09/20 07:07:48;;;;;;;3.50;1.08;;;;;;;;;;5005266;28;20095;-62
2023/09/20 07:10:16;;;;;;;3.67;1.20;;;;;;;;;;5006957;28;20128;-63
2023/09/20 07:12:43;;;;;;;3.00;1.05;;;;;;;;;;5006040;28;20513;-63
2023/09/20 07:15:14;;;;;;;2.60;1.00;;;;;;;;;;5012528;28;20038;-64
2023/09/20 07:17:42;;;;;;;3.00;1.10;;;;;;;;;;5011987;28;20080;-64
2023/09/20 07:20:17;;;;;;;4.35;1.10;;;;;;;;;;5003367;28;20057;-63
2023/09/20 07:22:45;;;;;;;7.03;1.23;;;;;;;;;;5002058;28;20036;-64
2023/09/20 07:25:31;;;;;;;4.00;1.30;;;;;;;;;;5001544;28;21352;-63
2023/09/20 07:27:59;;;;;;;4.60;1.65;;;;;;;;;;5009312;28;20049;-62
2023/09/20 07:30:31;;;;;;;3.85;1.23;;;;;;;;;;5005166;28;20042;-67
2023/09/20 07:32:58;;;;;;;5.43;1.40;;;;;;;;;;4997219;28;20691;-63
2023/09/20 07:35:27;;;;;;;3.30;1.08;;;;;;;;;;5000156;28;20042;-63
2023/09/20 07:37:57;;;;;;;3.47;1.10;;;;;;;;;;5004453;28;20419;-65
2023/09/20 07:40:31;;;;;;;4.75;1.10;;;;;;;;;;5001522;28;20231;-63
2023/09/20 07:43:04;;;;;;;3.88;1.30;;;;;;;;;;5000456;28;20081;-64
2023/09/20 07:45:39;;;;;;;3.65;1.20;;;;;;;;;;5006240;28;20341;-61
2023/09/20 07:48:13;;;;;;;6.22;1.30;;;;;;;;;;5006634;28;20120;-64
2023/09/20 07:50:44;;;;;;;6.70;1.42;;;;;;;;;;5003923;28;20026;-63
2023/09/20 07:53:11;;;;;;;6.05;1.48;;;;;;;;;;5005587;28;20671;-62
2023/09/20 07:55:43;;;;;;;2.65;0.82;;;;;;;;;;5003061;28;20090;-64
2023/09/20 07:58:11;;;;;;;3.55;1.25;;;;;;;;;;5004029;28;20614;-63
2023/09/20 08:00:44;;;;;;;3.92;1.25;;;;;;;;;;5001352;28;20037;-64
2023/09/20 08:03:12;;;;;;;3.75;1.40;;;;;;;;;;5002667;28;20046;-62
2023/09/20 08:05:39;;;;;;;5.22;1.65;;;;;;;;;;5018555;28;20612;-64
2023/09/20 08:08:10;;;;;;;5.13;1.15;;;;;;;;;;5006908;28;20037;-62
2023/09/20 08:10:37;;;;;;;3.67;1.30;;;;;;;;;;4999864;28;20030;-64
2023/09/20 08:13:04;;;;;;;5.10;1.38;;;;;;;;;;5009150;28;20033;-62
2023/09/20 08:15:44;;;;;;;6.20;1.50;;;;;;;;;;5023084;28;20108;-62
2023/09/20 08:20:56;;;;;;;4.15;1.40;;;;;;;;;;5005996;28;20099;-63
2023/09/20 09:02:02;;;;;;;4.25;1.30;;;;;;;;;;5004119;28;21324;-64
2023/09/20 09:04:29;;;;;;;5.32;1.23;;;;;;;;;;5005132;28;22093;-64
2023/09/20 09:06:56;;;;;;;4.82;1.40;;;;;;;;;;5006509;28;20049;-64
2023/09/20 09:09:23;;;;;;;5.35;1.25;;;;;;;;;;5007466;28;20836;-65
2023/09/20 09:11:49;;;;;;;5.28;1.48;;;;;;;;;;4997499;28;20096;-63
2023/09/20 09:14:16;;;;;;;3.92;1.27;;;;;;;;;;5021506;28;20038;-63
2023/09/20 09:16:43;;;;;;;5.53;1.50;;;;;;;;;;5005222;28;20872;-65
2023/09/20 09:19:09;;;;;;;4.35;1.40;;;;;;;;;;5003123;28;20502;-63
2023/09/20 09:21:37;;;;;;;6.28;1.85;;;;;;;;;;4992912;28;20452;-64
2023/09/20 09:24:04;;;;;;;5.32;1.40;;;;;;;;;;5016077;28;20051;-62
2023/09/20 09:26:31;;;;;;;4.13;1.52;;;;;;;;;;5005703;28;20509;-64
2023/09/20 09:28:59;;;;;;;7.80;1.40;;;;;;;;;;5004498;28;20584;-64
2023/09/20 09:31:50;;;;;;;4.10;1.17;;;;;;;;;;5019091;28;20064;-63
2023/09/20 09:34:19;;;;;;;3.37;1.30;;;;;;;;;;5003535;28;20041;-64
2023/09/20 09:36:46;;;;;;;3.97;1.40;;;;;;;;;;5018572;28;20045;-65
2023/09/20 09:39:16;;;;;;;6.07;1.20;;;;;;;;;;5019396;28;20045;-64
2023/09/20 09:41:43;;;;;;;4.40;1.23;;;;;;;;;;5018431;28;20045;-63
2023/09/20 09:44:20;;;;;;;3.65;1.30;;;;;;;;;;5020903;28;20059;-63
2023/09/20 09:46:47;;;;;;;4.03;1.20;;;;;;;;;;5031314;28;20702;-61
2023/09/20 09:49:16;;;;;;;4.32;1.45;;;;;;;;;;5042594;28;20080;-61
2023/09/20 09:51:45;;;;;;;3.03;1.20;;;;;;;;;;5032770;28;20413;-63
2023/09/20 09:54:15;;;;;;;5.38;1.65;;;;;;;;;;5043867;28;20535;-63
2023/09/20 09:56:42;;;;;;;3.60;1.25;;;;;;;;;;5023507;28;20045;-63
2023/09/20 09:59:09;;;;;;;7.00;1.20;;;;;;;;;;5027184;28;20041;-63
2023/09/20 10:01:36;;;;;;;5.07;1.27;;;;;;;;;;5025134;28;20048;-62
2023/09/20 10:04:17;;;;;;;3.75;1.23;;;;;;;;;;4984863;28;20046;-63
2023/09/20 10:06:54;;;;;;;3.80;1.40;;;;;;;;;;4985746;28;20050;-62
2023/09/20 10:09:25;;;;;;;4.97;1.30;;;;;;;;;;4987093;28;20042;-64
2023/09/20 10:11:52;;;;;;;3.75;1.25;;;;;;;;;;4984967;28;20038;-63
2023/09/20 10:14:22;;;;;;;3.63;1.05;;;;;;;;;;4981529;28;20499;-63
2023/09/20 10:16:49;;;;;;;3.17;1.30;;;;;;;;;;4983523;28;20141;-63
2023/09/20 10:19:16;;;;;;;5.00;1.42;;;;;;;;;;4984038;28;20525;-63
2023/09/20 10:22:11;;;;;;;3.75;1.40;;;;;;;;;;4982490;28;20423;-62
2023/09/20 10:24:55;;;;;;;3.13;1.20;;;;;;;;;;4976177;28;20048;-63
2023/09/20 10:27:23;;;;;;;5.28;1.13;;;;;;;;;;4994649;28;20050;-63
2023/09/20 10:30:02;;;;;;;4.03;1.48;;;;;;;;;;4982514;28;20056;-66
2023/09/20 10:32:35;;;;;;;3.97;1.20;;;;;;;;;;5002180;28;20101;-62
2023/09/20 10:35:02;;;;;;;;;;;;;;;;;;5017733;28;20049;-64
2023/09/20 10:37:29;;;;;;;4.22;1.45;;;;;;;;;;5018495;28;19996;-63
2023/09/20 10:39:58;;;;;;;3.63;1.48;;;;;;;;;;5006276;28;20100;-63
2023/09/20 10:42:25;;;;;;;4.57;1.35;;;;;;;;;;5004792;28;20090;-63
2023/09/20 10:44:52;;;;;;;4.95;1.50;;;;;;;;;;5020366;28;20042;-64
2023/09/20 10:47:19;;;;;;;5.75;1.40;;;;;;;;;;5026321;28;20115;-63
2023/09/20 10:49:56;;;;;;;3.70;1.52;;;;;;;;;;5022999;28;20055;-66
2023/09/20 10:52:37;;;;;;;3.28;1.17;;;;;;;;;;5027433;28;20127;-65
2023/09/20 10:55:28;;;;;;;4.07;1.52;;;;;;;;;;5029078;28;20643;-63
2023/09/20 10:58:01;;;;;;;3.67;1.20;;;;;;;;;;5029639;28;20092;-63
2023/09/20 11:00:34;;;;;;;2.70;1.00;;;;;;;;;;5025419;28;20045;-63
2023/09/20 11:03:04;;;;;;;6.13;1.40;;;;;;;;;;5014677;28;20456;-63
2023/09/20 11:05:32;;;;;;;3.55;1.20;;;;;;;;;;5006903;28;20037;-64
2023/09/20 11:08:06;;;;;;;3.80;1.30;;;;;;;;;;5027848;28;20041;-63
2023/09/20 11:10:34;;;;;;;3.17;1.17;;;;;;;;;;5028864;28;20070;-63
2023/09/20 11:13:02;;;;;;;3.47;1.20;;;;;;;;;;5025972;28;20038;-64
2023/09/20 11:15:28;;;;;;;3.15;1.38;;;;;;;;;;5026446;28;20040;-63
2023/09/20 11:17:56;;;;;;;3.40;1.38;;;;;;;;;;5021248;28;20053;-61
2023/09/20 11:20:24;;;;;;;3.47;1.25;;;;;;;;;;5003715;28;20050;-63
2023/09/20 11:22:52;;;;;;;3.13;1.40;;;;;;;;;;5003701;28;20045;-64
2023/09/20 11:25:19;;;;;;;3.85;1.45;;;;;;;;;;5020129;28;20041;-62
2023/09/20 11:27:47;;;;;;;3.28;1.20;;;;;;;;;;5018671;28;20113;-64
2023/09/20 11:30:14;;;;;;;5.13;1.70;;;;;;;;;;5004265;28;20711;-63
2023/09/20 11:32:41;;;;;;;4.38;1.30;;;;;;;;;;5019084;28;20232;-63
2023/09/20 11:35:08;;;;;;;2.80;1.02;;;;;;;;;;5018870;28;20732;-62
2023/09/20 11:37:36;;;;;;;5.80;1.30;;;;;;;;;;5000121;28;20041;-63
2023/09/20 11:40:04;;;;;;;2.95;1.20;;;;;;;;;;5002725;28;20994;-64
2023/09/20 11:42:36;;;;;;;4.20;1.30;;;;;;;;;;5001332;28;20113;-64
2023/09/20 11:45:03;;;;;;;4.32;1.52;;;;;;;;;;5004253;28;20041;-63
2023/09/20 11:47:31;;;;;;;4.05;1.55;;;;;;;;;;5018912;28;20046;-62
2023/09/20 11:49:58;;;;;;;3.40;1.38;;;;;;;;;;5009950;28;20033;-63
2023/09/20 11:52:25;;;;;;;3.28;1.25;;;;;;;;;;4998453;28;20053;-64
2023/09/20 11:54:57;;;;;;;4.07;1.10;;;;;;;;;;5018636;28;20073;-62
2023/09/20 11:57:25;;;;;;;4.30;1.63;;;;;;;;;;5003928;28;20172;-63
2023/09/20 11:59:53;;;;;;;3.03;1.25;;;;;;;;;;5018183;28;20046;-62
2023/09/20 12:02:21;;;;;;;4.60;1.63;;;;;;;;;;5003184;28;20112;-63
2023/09/20 12:04:53;;;;;;;3.88;1.52;;;;;;;;;;5001065;28;20468;-64
2023/09/20 12:07:20;;;;;;;6.75;1.58;;;;;;;;;;5001657;28;20041;-64
2023/09/20 12:09:47;;;;;;;3.88;1.58;;;;;;;;;;5001723;28;20494;-64
2023/09/20 12:12:34;;;;;;;4.32;1.73;;;;;;;;;;4990531;28;20419;-63
2023/09/20 12:15:01;;;;;;;3.42;1.63;;;;;;;;;;4999099;28;20042;-63
2023/09/20 12:17:29;;;;;;;5.78;1.55;;;;;;;;;;4988558;28;21315;-64
2023/09/20 12:19:57;;;;;;;4.20;1.70;;;;;;;;;;4998260;28;20382;-63
2023/09/20 12:22:24;;;;;;;3.88;1.73;;;;;;;;;;4998263;28;20438;-63
2023/09/20 12:24:51;;;;;;;3.17;1.48;;;;;;;;;;4999830;28;20049;-63
2023/09/20 12:27:18;;;;;;;4.88;1.50;;;;;;;;;;4999476;28;20069;-57
2023/09/20 12:29:45;;;;;;;4.00;1.67;;;;;;;;;;4999455;28;20469;-64
2023/09/20 12:32:31;;;;;;;6.93;1.92;;;;;;;;;;4983183;28;20144;-60
2023/09/20 12:34:59;;;;;;;4.70;1.77;;;;;;;;;;4984005;28;20544;-62
2023/09/20 12:37:25;;;;;;;3.22;1.30;;;;;;;;;;4981738;28;20125;-63
2023/09/20 12:39:53;;;;;;;6.25;1.60;;;;;;;;;;4984188;28;20502;-62
2023/09/20 12:42:20;;;;;;;3.80;1.48;;;;;;;;;;4984318;28;20037;-61
2023/09/20 12:44:47;;;;;;;3.63;1.52;;;;;;;;;;4968454;28;20042;-62
2023/09/20 12:47:14;;;;;;;5.43;1.70;;;;;;;;;;4969128;28;20044;-63
2023/09/20 12:49:40;;;;;;;3.67;1.75;;;;;;;;;;4986622;28;20041;-61
2023/09/20 12:52:07;;;;;;;4.13;1.73;;;;;;;;;;5001721;28;20627;-59
2023/09/20 12:54:34;;;;;;;4.70;2.10;;;;;;;;;;5000948;28;20053;-57
2023/09/20 12:57:00;;;;;;;4.05;1.70;;;;;;;;;;5000044;28;20046;-62
2023/09/20 12:59:27;;;;;;;3.33;1.40;;;;;;;;;;5002451;28;20057;-63
2023/09/20 13:02:00;;;;;;;3.08;1.45;;;;;;;;;;5002558;28;20065;-63
2023/09/20 13:04:27;;;;;;;4.80;1.70;;;;;;;;;;5004602;28;20132;-62
2023/09/20 13:06:54;;;;;;;4.78;1.83;;;;;;;;;;5018806;28;20570;-62
2023/09/20 13:09:22;;;;;;;9.15;2.20;;;;;;;;;;5005678;28;20636;-63
2023/09/20 13:11:51;;;;;;;7.68;1.65;;;;;;;;;;5005268;28;20038;-64
2023/09/20 13:14:19;;;;;;;6.00;1.55;;;;;;;;;;5012588;28;20045;-63
2023/09/20 13:16:49;;;;;;;5.20;1.75;;;;;;;;;;5018922;28;20041;-63
2023/09/20 13:19:18;;;;;;;4.97;1.60;;;;;;;;;;5012190;28;20042;-67
2023/09/20 13:21:46;;;;;;;3.97;1.83;;;;;;;;;;5002495;28;20144;-63
2023/09/20 13:24:12;;;;;;;3.67;1.60;;;;;;;;;;5021052;28;20045;-62
2023/09/20 13:26:40;;;;;;;5.00;1.90;;;;;;;;;;5017752;28;20045;-63
2023/09/20 13:29:07;;;;;;;10.82;2.15;;;;;;;;;;5006587;28;20049;-64
2023/09/20 13:31:40;;;;;;;5.93;1.60;;;;;;;;;;5010428;28;20613;-62
2023/09/20 13:34:14;;;;;;;3.67;1.50;;;;;;;;;;5006457;28;20038;-64
2023/09/20 13:36:44;;;;;;;6.78;1.90;;;;;;;;;;5005219;28;20034;-63
2023/09/20 13:39:12;;;;;;;4.32;1.80;;;;;;;;;;5006467;28;20050;-62
2023/09/20 13:41:39;;;;;;;4.50;1.40;;;;;;;;;;5004617;28;20049;-64
2023/09/20 13:44:08;;;;;;;3.53;1.60;;;;;;;;;;5005719;28;20124;-65
2023/09/20 13:46:38;;;;;;;8.05;1.52;;;;;;;;;;5004989;28;20049;-64
2023/09/20 13:49:08;;;;;;;5.25;1.42;;;;;;;;;;5020335;28;20512;-63
2023/09/20 13:51:38;;;;;;;5.55;1.48;;;;;;;;;;5004025;28;20038;-62
2023/09/20 13:54:07;;;;;;;4.57;1.20;;;;;;;;;;5005770;28;20406;-63
2023/09/20 13:56:36;;;;;;;3.50;1.35;;;;;;;;;;4995146;28;20080;-65
2023/09/20 13:59:03;;;;;;;3.70;1.30;;;;;;;;;;5005301;28;20063;-63
2023/09/20 14:01:32;;;;;;;5.22;1.35;;;;;;;;;;5007497;28;20038;-64
2023/09/20 14:03:59;;;;;;;3.10;1.20;;;;;;;;;;5017650;28;20490;-64
2023/09/20 14:06:25;;;;;;;4.50;1.20;;;;;;;;;;5009175;28;20447;-61
2023/09/20 14:08:52;;;;;;;3.55;1.40;;;;;;;;;;5005864;28;20076;-63
2023/09/20 14:11:21;;;;;;;5.40;1.25;;;;;;;;;;5004804;28;20621;-63
2023/09/20 14:13:48;;;;;;;5.57;1.10;;;;;;;;;;5002794;28;20037;-61
2023/09/20 14:16:16;;;;;;;3.45;1.20;;;;;;;;;;5001254;28;20687;-62
2023/09/20 14:18:46;;;;;;;2.83;0.95;;;;;;;;;;5002303;28;20045;-63
2023/09/20 14:21:14;;;;;;;3.20;1.02;;;;;;;;;;5006442;28;20042;-67
2023/09/20 14:23:40;;;;;;;2.35;0.85;;;;;;;;;;5015233;28;21800;-63
2023/09/20 14:26:14;;;;;;;4.45;1.00;;;;;;;;;;4998174;28;20056;-62
2023/09/20 14:28:42;;;;;;;5.07;0.80;;;;;;;;;;5000391;28;20239;-63
2023/09/20 14:31:16;;;;;;;4.28;0.80;;;;;;;;;;5001356;28;20037;-63
2023/09/20 14:33:43;;;;;;;2.50;0.88;;;;;;;;;;5001868;28;20042;-64
2023/09/20 14:36:11;;;;;;;2.10;0.60;;;;;;;;;;5017043;28;20049;-64
2023/09/20 14:38:41;;;;;;;2.35;0.80;;;;;;;;;;5002259;28;20540;-64
2023/09/20 14:41:08;;;;;;;2.40;0.77;;;;;;;;;;5017652;28;20216;-63
2023/09/20 14:43:34;;;;;;;2.60;0.70;;;;;;;;;;5027034;28;20041;-65
2023/09/20 14:46:10;;;;;;;3.35;0.90;;;;;;;;;;5028885;28;20053;-64
2023/09/20 14:48:37;;;;;;;1.70;0.70;;;;;;;;;;5011417;28;20519;-63
2023/09/20 14:51:04;;;;;;;3.30;0.55;;;;;;;;;;5027638;28;20526;-63
2023/09/20 14:53:32;;;;;;;3.35;0.75;;;;;;;;;;5027561;28;20041;-64
2023/09/20 14:55:58;;;;;;;2.17;0.65;;;;;;;;;;5013813;28;20056;-64
2023/09/20 14:58:26;;;;;;;3.50;0.70;;;;;;;;;;5021989;28;20045;-64
2023/09/20 15:00:53;;;;;;;2.33;0.63;;;;;;;;;;5028446;28;20099;-62
2023/09/20 15:03:20;;;;;;;2.38;0.52;;;;;;;;;;5027723;28;20406;-64
2023/09/20 15:05:47;;;;;;;1.55;0.55;;;;;;;;;;5012966;28;20117;-63
2023/09/20 15:08:13;;;;;;;1.63;0.70;;;;;;;;;;5001146;28;20053;-62
2023/09/20 15:10:43;;;;;;;2.17;0.60;;;;;;;;;;5025959;28;20080;-62
2023/09/20 15:13:09;;;;;;;2.17;0.60;;;;;;;;;;5028190;28;20247;-63
2023/09/20 15:15:36;;;;;;;2.40;0.70;;;;;;;;;;5008708;28;20041;-63
2023/09/20 15:18:04;;;;;;;2.20;0.50;;;;;;;;;;5028548;28;20405;-64
2023/09/20 15:20:31;;;;;;;3.17;0.80;;;;;;;;;;5005635;28;20556;-65
2023/09/20 15:23:04;;;;;;;3.75;0.82;;;;;;;;;;5005423;28;20037;-63
2023/09/20 15:25:34;;;;;;;2.22;0.68;;;;;;;;;;5014114;28;20052;-64
2023/09/20 15:28:01;;;;;;;2.03;0.60;;;;;;;;;;5003565;28;20041;-63
2023/09/20 15:30:29;;;;;;;2.38;0.80;;;;;;;;;;5003203;28;20042;-66
2023/09/20 15:33:22;;;;;;;2.92;0.60;;;;;;;;;;5004921;28;20048;-64
2023/09/20 15:35:51;;;;;;;4.28;0.70;;;;;;;;;;5013812;28;20704;-63